createdAt,value
2022-10-10T00:00:51.965Z,86.71
2022-10-10T00:03:19.864Z,87.04
2022-10-10T00:05:46.442Z,86.71
2022-10-10T00:08:13.146Z,87.58
2022-10-10T00:10:39.661Z,87.17
2022-10-10T00:13:06.263Z,87.19
2022-10-10T00:15:33.328Z,87.97
2022-10-10T00:18:00.235Z,87.95
2022-10-10T00:20:27.153Z,87.75
2022-10-10T00:22:54.332Z,87.82
2022-10-10T00:25:20.877Z,87.76
2022-10-10T00:27:47.438Z,88.04
2022-10-10T00:30:14.093Z,87.61
2022-10-10T00:32:40.693Z,87.82
2022-10-10T00:35:07.629Z,87.64
2022-10-10T00:37:34.140Z,87.62
2022-10-10T00:40:00.662Z,87.51
2022-10-10T00:42:27.161Z,87.69
2022-10-10T00:45:24.480Z,87.85
2022-10-10T00:47:56.913Z,89.03
2022-10-10T00:50:24.805Z,89.00
2022-10-10T00:52:52.187Z,89.12
2022-10-10T00:55:19.429Z,89.07
2022-10-10T00:57:46.448Z,89.27
2022-10-10T01:00:13.843Z,89.50
2022-10-10T01:02:40.557Z,89.20
2022-10-10T01:05:07.356Z,89.57
2022-10-10T01:07:34.588Z,89.11
2022-10-10T01:10:11.813Z,88.59
2022-10-10T01:13:03.006Z,89.03
2022-10-10T01:15:35.737Z,89.12
2022-10-10T01:18:30.057Z,88.59
2022-10-10T01:21:13.240Z,88.62
2022-10-10T01:24:17.647Z,88.39
2022-10-10T01:27:06.517Z,88.65
2022-10-10T01:29:39.060Z,88.43
2022-10-10T01:32:13.464Z,88.27
2022-10-10T01:35:14.426Z,88.16
2022-10-10T01:37:56.778Z,88.73
2022-10-10T01:41:04.746Z,88.95
2022-10-10T01:43:31.424Z,89.38
2022-10-10T01:45:58.180Z,89.48
2022-10-10T01:48:30.245Z,89.87
2022-10-10T01:51:15.218Z,90.08
2022-10-10T01:54:23.148Z,90.02
2022-10-10T01:57:05.159Z,89.52
2022-10-10T01:59:40.602Z,89.19
2022-10-10T02:02:40.502Z,89.57
2022-10-10T02:05:14.070Z,90.01
2022-10-10T02:07:57.274Z,89.84
2022-10-10T02:10:31.315Z,89.97
2022-10-10T02:12:59.494Z,90.72
2022-10-10T02:15:31.548Z,91.17
2022-10-10T02:18:00.391Z,90.11
2022-10-10T02:20:29.224Z,90.47
2022-10-10T02:22:56.634Z,90.55
2022-10-10T02:25:29.472Z,90.53
2022-10-10T02:28:11.389Z,90.87
2022-10-10T02:30:43.004Z,91.08
2022-10-10T02:33:10.885Z,90.93
2022-10-10T02:35:42.789Z,90.84
2022-10-10T02:38:12.945Z,91.54
2022-10-10T02:40:41.739Z,91.75
2022-10-10T02:43:11.036Z,91.56
2022-10-10T02:45:39.598Z,92.00
2022-10-10T02:48:06.585Z,92.20
2022-10-10T02:50:34.055Z,92.20
2022-10-10T02:53:00.570Z,92.19
2022-10-10T02:55:27.255Z,91.63
2022-10-10T02:57:54.090Z,91.92
2022-10-10T03:00:20.703Z,91.94
2022-10-10T03:02:47.378Z,91.60
2022-10-10T03:05:14.339Z,91.64
2022-10-10T03:07:40.859Z,92.03
2022-10-10T03:10:07.786Z,91.72
2022-10-10T03:12:35.485Z,91.38
2022-10-10T03:15:02.284Z,91.29
2022-10-10T03:17:28.913Z,91.38
2022-10-10T03:19:55.404Z,91.42
2022-10-10T03:22:22.040Z,90.65
2022-10-10T03:24:48.588Z,91.42
2022-10-10T03:27:15.179Z,90.84
2022-10-10T03:29:41.659Z,91.03
2022-10-10T03:32:11.031Z,91.16
2022-10-10T03:34:37.912Z,90.89
2022-10-10T03:37:04.700Z,91.34
2022-10-10T03:39:31.235Z,91.47
2022-10-10T03:41:57.878Z,91.60
2022-10-10T03:44:24.518Z,92.01
2022-10-10T03:46:51.021Z,92.19
2022-10-10T03:49:17.755Z,91.97
2022-10-10T03:51:44.305Z,91.91
2022-10-10T03:54:10.936Z,91.35
2022-10-10T03:56:37.491Z,91.85
2022-10-10T03:59:06.135Z,91.91
2022-10-10T04:01:33.432Z,92.52
2022-10-10T04:04:00.265Z,91.47
2022-10-10T04:06:27.697Z,92.60
2022-10-10T04:08:54.244Z,91.95
2022-10-10T04:11:21.010Z,92.52
2022-10-10T04:13:47.710Z,92.45
2022-10-10T04:16:14.581Z,92.65
2022-10-10T04:18:41.134Z,92.66
2022-10-10T04:21:07.668Z,91.33
2022-10-10T04:23:35.174Z,91.30
2022-10-10T04:26:01.865Z,91.50
2022-10-10T04:28:28.404Z,91.34
2022-10-10T04:30:56.692Z,91.30
2022-10-10T04:33:23.363Z,91.81
2022-10-10T04:35:50.466Z,91.75
2022-10-10T04:38:17.972Z,92.10
2022-10-10T04:40:44.526Z,91.42
2022-10-10T04:43:11.078Z,91.54
2022-10-10T04:45:37.895Z,91.76
2022-10-10T04:48:05.001Z,91.74
2022-10-10T04:50:31.611Z,91.01
2022-10-10T04:52:58.140Z,91.47
2022-10-10T04:55:24.677Z,91.00
2022-10-10T04:57:51.220Z,91.73
2022-10-10T05:00:17.739Z,91.94
2022-10-10T05:02:44.209Z,92.37
2022-10-10T05:05:11.038Z,92.75
2022-10-10T05:07:37.983Z,92.88
2022-10-10T05:10:06.177Z,94.19
2022-10-10T05:12:33.226Z,94.16
2022-10-10T05:14:59.885Z,94.16
2022-10-10T05:17:26.433Z,94.56
2022-10-10T05:19:53.846Z,95.29
2022-10-10T05:22:20.549Z,95.41
2022-10-10T05:24:47.084Z,95.54
2022-10-10T05:27:13.834Z,95.57
2022-10-10T05:29:40.890Z,96.26
2022-10-10T05:32:10.270Z,95.75
2022-10-10T05:34:40.589Z,95.96
2022-10-10T05:37:09.368Z,95.64
2022-10-10T05:39:41.555Z,95.63
2022-10-10T05:42:11.288Z,95.40
2022-10-10T05:44:37.746Z,95.67
2022-10-10T05:47:04.499Z,95.98
2022-10-10T05:49:30.976Z,96.49
2022-10-10T05:51:57.522Z,95.89
2022-10-10T05:54:24.560Z,96.29
2022-10-10T05:56:50.991Z,95.76
2022-10-10T05:59:17.455Z,96.40
2022-10-10T06:01:43.903Z,97.31
2022-10-10T06:04:10.325Z,97.01
2022-10-10T06:06:36.778Z,97.98
2022-10-10T06:09:03.842Z,98.27
2022-10-10T06:11:30.301Z,99.11
2022-10-10T06:13:57.302Z,99.54
2022-10-10T06:16:26.195Z,98.97
2022-10-10T06:18:53.212Z,98.72
2022-10-10T06:21:20.407Z,98.41
2022-10-10T06:23:46.853Z,98.58
2022-10-10T06:26:13.285Z,99.00
2022-10-10T06:28:39.744Z,99.25
2022-10-10T06:31:08.477Z,99.43
2022-10-10T06:33:37.228Z,98.84
2022-10-10T06:36:08.185Z,98.95
2022-10-10T06:38:39.343Z,99.54
2022-10-10T06:41:07.114Z,99.70
2022-10-10T06:43:34.279Z,99.85
2022-10-10T06:46:02.185Z,99.46
2022-10-10T06:48:34.748Z,100.00
2022-10-10T06:51:04.917Z,99.69
2022-10-10T06:53:32.202Z,100.00
2022-10-10T06:55:59.229Z,100.00
2022-10-10T06:58:27.821Z,99.33
2022-10-10T07:00:56.681Z,98.40
2022-10-10T07:03:23.756Z,99.39
2022-10-10T07:05:52.501Z,98.41
2022-10-10T07:08:19.916Z,99.75
2022-10-10T07:10:47.163Z,99.80
2022-10-10T07:13:14.192Z,100.00
2022-10-10T07:15:40.715Z,100.00
2022-10-10T07:18:07.953Z,100.00
2022-10-10T07:20:35.384Z,100.00
2022-10-10T07:23:02.863Z,100.00
2022-10-10T07:25:29.321Z,100.00
2022-10-10T07:27:56.988Z,100.00
2022-10-10T07:30:25.215Z,100.00
2022-10-10T07:32:55.484Z,100.00
2022-10-10T07:35:23.094Z,100.00
2022-10-10T07:37:54.241Z,100.00
2022-10-10T07:40:20.718Z,99.96
2022-10-10T07:42:47.227Z,99.76
2022-10-10T07:45:13.897Z,99.76
2022-10-10T07:47:40.813Z,97.89
2022-10-10T07:50:08.071Z,97.58
2022-10-10T07:52:35.529Z,97.55
2022-10-10T07:55:04.107Z,96.37
2022-10-10T07:57:34.954Z,97.07
2022-10-10T08:00:07.998Z,97.39
2022-10-10T08:02:34.762Z,95.88
2022-10-10T08:05:01.182Z,96.29
2022-10-10T08:07:28.082Z,91.53
2022-10-10T08:09:54.567Z,86.06
2022-10-10T08:12:21.459Z,83.81
2022-10-10T08:14:47.949Z,83.03
2022-10-10T08:17:14.479Z,79.93
2022-10-10T08:19:40.917Z,79.41
2022-10-10T08:22:07.627Z,79.45
2022-10-10T08:24:34.087Z,78.37
2022-10-10T08:27:00.511Z,79.94
2022-10-10T08:29:27.003Z,82.05
2022-10-10T08:31:53.468Z,84.08
2022-10-10T08:34:19.990Z,85.23
2022-10-10T08:36:46.420Z,84.43
2022-10-10T08:39:12.889Z,78.79
2022-10-10T08:41:49.801Z,71.94
2022-10-10T08:44:20.033Z,69.39
2022-10-10T08:46:59.590Z,67.38
2022-10-10T08:49:37.175Z,63.87
2022-10-10T08:52:41.101Z,63.11
2022-10-10T08:55:18.758Z,60.67
2022-10-10T08:57:51.377Z,58.50
2022-10-10T09:00:22.139Z,57.84
2022-10-10T09:02:56.499Z,55.99
2022-10-10T09:05:56.172Z,55.33
2022-10-10T09:08:33.892Z,54.08
2022-10-10T09:11:22.925Z,54.81
2022-10-10T09:14:34.952Z,52.96
2022-10-10T09:17:26.088Z,53.21
2022-10-10T09:20:21.868Z,50.10
2022-10-10T09:23:07.808Z,50.14
2022-10-10T09:25:40.269Z,47.95
2022-10-10T09:28:13.585Z,46.92
2022-10-10T09:30:45.234Z,47.15
2022-10-10T09:33:27.427Z,44.04
2022-10-10T09:35:57.683Z,46.88
2022-10-10T09:38:35.673Z,45.68
2022-10-10T09:41:05.342Z,44.83
2022-10-10T09:43:34.280Z,45.96
2022-10-10T09:46:01.568Z,44.55
2022-10-10T09:48:32.864Z,42.89
2022-10-10T09:51:01.351Z,42.94
2022-10-10T09:53:28.161Z,42.93
2022-10-10T09:55:54.983Z,42.61
2022-10-10T09:58:30.142Z,41.67
2022-10-10T10:01:20.388Z,41.95
2022-10-10T10:04:23.396Z,42.12
2022-10-10T10:07:07.311Z,42.86
2022-10-10T10:09:34.183Z,42.81
2022-10-10T10:12:01.682Z,40.48
2022-10-10T10:14:37.124Z,40.99
2022-10-10T10:17:29.979Z,39.49
2022-10-10T10:19:56.489Z,39.52
2022-10-10T10:22:38.570Z,38.86
2022-10-10T10:25:32.968Z,39.34
2022-10-10T10:28:11.643Z,39.02
2022-10-10T10:30:39.764Z,38.06
2022-10-10T10:33:41.428Z,38.76
2022-10-10T10:36:32.636Z,37.52
2022-10-10T10:39:13.899Z,38.22
2022-10-10T10:41:53.991Z,36.10
2022-10-10T10:44:38.559Z,36.05
2022-10-10T10:48:01.226Z,36.60
2022-10-10T10:50:38.299Z,35.83
2022-10-10T10:53:18.891Z,35.23
2022-10-10T10:56:02.233Z,37.16
2022-10-10T11:01:58.027Z,34.89
2022-10-10T11:05:25.201Z,35.09
2022-10-10T11:07:22.241Z,35.44
2022-10-10T11:09:51.454Z,35.02
2022-10-10T11:12:33.659Z,35.05
2022-10-10T11:15:10.569Z,35.11
2022-10-10T11:17:45.332Z,34.25
2022-10-10T11:20:45.621Z,34.64
2022-10-10T11:23:18.674Z,34.40
2022-10-10T11:26:03.236Z,34.23
2022-10-10T11:28:40.084Z,33.25
2022-10-10T11:31:17.181Z,32.97
2022-10-10T11:33:54.300Z,33.04
2022-10-10T11:36:26.516Z,34.86
2022-10-10T11:39:16.799Z,34.00
2022-10-10T11:41:54.280Z,34.31
2022-10-10T11:44:39.677Z,32.86
2022-10-10T11:47:28.230Z,32.41
2022-10-10T11:50:03.804Z,32.15
2022-10-10T11:52:48.527Z,32.48
2022-10-10T11:55:31.384Z,30.42
2022-10-10T11:58:07.081Z,30.87
2022-10-10T12:00:57.868Z,30.68
2022-10-10T12:03:26.318Z,29.41
2022-10-10T12:06:00.518Z,30.39
2022-10-10T12:08:43.477Z,30.56
2022-10-10T12:11:13.265Z,31.88
2022-10-10T12:13:45.092Z,31.77
2022-10-10T12:16:19.342Z,31.90
2022-10-10T12:18:51.886Z,32.68
2022-10-10T12:21:19.778Z,32.58
2022-10-10T12:24:00.559Z,31.72
2022-10-10T12:26:55.060Z,32.15
2022-10-10T12:29:41.755Z,31.92
2022-10-10T12:32:14.307Z,31.28
2022-10-10T12:34:42.477Z,31.73
2022-10-10T12:37:26.503Z,32.52
2022-10-10T12:40:05.270Z,33.21
2022-10-10T12:42:46.908Z,32.70
2022-10-10T12:45:28.633Z,32.75
2022-10-10T12:48:07.090Z,33.17
2022-10-10T12:50:40.417Z,32.96
2022-10-10T12:53:12.947Z,32.97
2022-10-10T12:55:44.004Z,34.08
2022-10-10T12:58:26.527Z,36.41
2022-10-10T13:00:55.778Z,34.93
2022-10-10T13:03:31.697Z,34.40
2022-10-10T13:06:35.529Z,34.01
2022-10-10T13:09:07.607Z,34.73
2022-10-10T13:11:50.631Z,35.43
2022-10-10T13:14:17.059Z,37.72
2022-10-10T13:16:44.513Z,38.88
2022-10-10T13:19:19.728Z,37.27
2022-10-10T13:21:47.166Z,36.88
2022-10-10T13:24:17.745Z,35.85
2022-10-10T13:26:50.439Z,38.67
2022-10-10T13:29:22.026Z,38.91
2022-10-10T13:31:50.041Z,37.42
2022-10-10T13:34:23.480Z,38.90
2022-10-10T13:36:57.760Z,39.22
2022-10-10T13:39:25.359Z,39.02
2022-10-10T13:41:53.762Z,38.23
2022-10-10T13:44:30.525Z,39.65
2022-10-10T13:46:57.076Z,40.39
2022-10-10T13:49:27.261Z,39.85
2022-10-10T13:52:21.539Z,41.28
2022-10-10T13:54:49.026Z,40.07
2022-10-10T13:57:19.665Z,38.76
2022-10-10T13:59:49.518Z,39.11
2022-10-10T14:02:19.049Z,38.55
2022-10-10T14:04:50.776Z,40.84
2022-10-10T14:07:22.100Z,40.36
2022-10-10T14:09:59.090Z,40.47
2022-10-10T14:12:35.810Z,40.81
2022-10-10T14:15:04.950Z,41.58
2022-10-10T14:17:31.484Z,42.87
2022-10-10T14:19:58.011Z,42.35
2022-10-10T14:22:24.513Z,42.24
2022-10-10T14:24:50.986Z,43.58
2022-10-10T14:27:26.923Z,43.58
2022-10-10T14:29:55.965Z,45.51
2022-10-10T14:32:23.005Z,44.58
2022-10-10T14:34:49.637Z,45.13
2022-10-10T14:37:17.819Z,47.04
2022-10-10T14:39:44.597Z,46.89
2022-10-10T14:42:13.338Z,47.75
2022-10-10T14:44:39.822Z,47.93
2022-10-10T14:47:07.159Z,46.96
2022-10-10T14:49:33.626Z,47.92
2022-10-10T14:52:01.457Z,49.13
2022-10-10T14:54:27.890Z,49.60
2022-10-10T14:57:08.899Z,49.57
2022-10-10T14:59:47.260Z,51.03
2022-10-10T15:02:21.775Z,50.22
2022-10-10T15:04:49.201Z,50.93
2022-10-10T15:07:16.190Z,50.95
2022-10-10T15:12:36.077Z,51.56
2022-10-10T15:15:02.872Z,52.33
2022-10-10T15:17:31.024Z,53.22
2022-10-10T15:19:57.531Z,53.54
2022-10-10T15:22:24.051Z,55.21
2022-10-10T15:24:50.527Z,57.50
2022-10-10T15:27:16.938Z,53.61
2022-10-10T15:29:43.381Z,54.46
2022-10-10T15:32:09.828Z,52.36
2022-10-10T15:34:36.498Z,51.75
2022-10-10T15:37:03.034Z,52.47
2022-10-10T15:39:30.910Z,52.47
2022-10-10T15:41:57.515Z,53.35
2022-10-10T15:44:23.984Z,52.91
2022-10-10T15:46:50.705Z,52.96
2022-10-10T15:49:17.132Z,52.91
2022-10-10T15:51:45.804Z,53.12
2022-10-10T15:54:13.195Z,52.18
2022-10-10T15:56:40.158Z,52.62
2022-10-10T15:59:08.262Z,52.60
2022-10-10T16:01:35.684Z,54.29
2022-10-10T16:04:03.622Z,56.05
2022-10-10T16:06:30.053Z,56.44
2022-10-10T16:09:16.366Z,57.60
2022-10-10T16:11:43.023Z,58.36
2022-10-10T16:14:10.036Z,58.44
2022-10-10T16:16:36.496Z,59.45
2022-10-10T16:19:03.352Z,59.56
2022-10-10T16:21:30.517Z,60.12
2022-10-10T16:23:58.270Z,60.11
2022-10-10T16:26:29.243Z,60.79
2022-10-10T16:28:56.407Z,61.02
2022-10-10T16:31:25.032Z,61.37
2022-10-10T16:33:51.781Z,61.89
2022-10-10T16:36:28.133Z,62.78
2022-10-10T16:38:57.350Z,63.27
2022-10-10T16:41:46.581Z,63.68
2022-10-10T16:44:13.113Z,63.88
2022-10-10T16:46:39.607Z,64.79
2022-10-10T16:49:06.021Z,65.12
2022-10-10T16:51:32.685Z,66.11
2022-10-10T16:54:01.640Z,66.94
2022-10-10T16:56:28.445Z,67.31
2022-10-10T16:58:54.933Z,69.09
2022-10-10T17:01:23.192Z,70.44
2022-10-10T17:03:50.562Z,72.95
2022-10-10T17:06:19.538Z,73.19
2022-10-10T17:08:47.667Z,72.83
2022-10-10T17:11:14.745Z,73.63
2022-10-10T17:13:42.205Z,74.60
2022-10-10T17:16:47.718Z,74.71
2022-10-10T17:19:00.860Z,73.40
2022-10-10T17:21:27.427Z,74.48
2022-10-10T17:23:54.184Z,76.26
2022-10-10T17:26:26.072Z,76.46
2022-10-10T17:28:57.791Z,76.78
2022-10-10T17:31:24.962Z,77.02
2022-10-10T17:33:54.188Z,76.14
2022-10-10T17:36:24.138Z,74.89
2022-10-10T17:38:51.882Z,75.95
2022-10-10T17:41:20.208Z,75.63
2022-10-10T17:43:46.701Z,75.06
2022-10-10T17:46:40.388Z,76.51
2022-10-10T17:49:09.024Z,77.62
2022-10-10T17:51:36.650Z,77.98
2022-10-10T17:54:04.448Z,79.63
2022-10-10T17:56:31.634Z,79.28
2022-10-10T17:59:00.533Z,79.75
2022-10-10T18:01:27.752Z,80.03
2022-10-10T18:03:54.243Z,79.44
2022-10-10T18:06:22.707Z,79.69
2022-10-10T18:08:51.279Z,79.14
2022-10-10T18:11:20.802Z,78.69
2022-10-10T18:13:47.301Z,79.27
2022-10-10T18:16:16.594Z,79.31
2022-10-10T18:18:50.339Z,79.08
2022-10-10T18:21:19.548Z,80.08
2022-10-10T18:23:46.065Z,80.28
2022-10-10T18:26:24.200Z,80.37
2022-10-10T18:28:52.617Z,79.72
2022-10-10T18:31:32.957Z,79.30
2022-10-10T18:34:00.726Z,79.93
2022-10-10T18:36:30.168Z,79.34
2022-10-10T18:39:05.495Z,79.80
2022-10-10T18:41:34.849Z,79.70
2022-10-10T18:44:06.947Z,79.64
2022-10-10T18:46:34.701Z,80.31
2022-10-10T18:49:02.314Z,80.83
2022-10-10T18:51:29.859Z,80.44
2022-10-10T18:54:07.513Z,80.17
2022-10-10T18:56:36.326Z,80.60
2022-10-10T18:59:04.857Z,79.99
2022-10-10T19:01:36.188Z,80.33
2022-10-10T19:04:05.097Z,80.52
2022-10-10T19:06:31.683Z,80.11
2022-10-10T19:08:59.797Z,79.93
2022-10-10T19:11:32.332Z,79.84
2022-10-10T19:14:00.711Z,79.84
2022-10-10T19:16:27.834Z,80.24
2022-10-10T19:18:58.613Z,80.91
2022-10-10T19:21:27.098Z,80.74
2022-10-10T19:23:53.542Z,80.58
2022-10-10T19:26:20.001Z,80.50
2022-10-10T19:28:46.859Z,79.56
2022-10-10T19:31:16.044Z,79.32
2022-10-10T19:33:43.366Z,78.99
2022-10-10T19:36:11.558Z,78.91
2022-10-10T19:38:40.131Z,79.13
2022-10-10T19:41:08.706Z,79.45
2022-10-10T19:43:35.149Z,80.13
2022-10-10T19:46:06.453Z,80.02
2022-10-10T19:48:33.608Z,79.31
2022-10-10T19:51:04.547Z,79.58
2022-10-10T19:53:33.336Z,78.95
2022-10-10T19:56:04.106Z,79.13
2022-10-10T19:58:30.854Z,78.75
2022-10-10T20:00:57.791Z,78.28
2022-10-10T20:03:24.991Z,78.33
2022-10-10T20:05:51.770Z,78.59
2022-10-10T20:08:20.179Z,77.91
2022-10-10T20:10:46.678Z,77.12
2022-10-10T20:13:15.986Z,77.58
2022-10-10T20:15:47.210Z,78.71
2022-10-10T20:18:13.689Z,79.45
2022-10-10T20:20:47.748Z,79.44
2022-10-10T20:23:15.549Z,80.04
2022-10-10T20:25:43.947Z,79.79
2022-10-10T20:28:12.017Z,80.16
2022-10-10T20:30:41.165Z,80.63
2022-10-10T20:33:08.299Z,79.99
2022-10-10T20:35:35.809Z,79.05
2022-10-10T20:38:04.416Z,77.70
2022-10-10T20:40:31.374Z,77.13
2022-10-10T20:42:57.901Z,77.39
2022-10-10T20:45:24.494Z,78.16
2022-10-10T20:47:50.954Z,78.65
2022-10-10T20:50:17.672Z,78.83
2022-10-10T20:52:44.580Z,79.38
2022-10-10T20:55:11.160Z,79.83
2022-10-10T20:57:38.430Z,79.69
2022-10-10T21:00:06.085Z,79.93
2022-10-10T21:02:33.895Z,80.17
2022-10-10T21:05:00.408Z,82.49
2022-10-10T21:07:29.002Z,83.26
2022-10-10T21:09:55.544Z,83.21
2022-10-10T21:12:22.083Z,84.26
2022-10-10T21:14:48.611Z,84.77
2022-10-10T21:17:15.056Z,85.23
2022-10-10T21:19:41.538Z,84.50
2022-10-10T21:22:08.030Z,84.18
2022-10-10T21:24:34.543Z,83.86
2022-10-10T21:27:00.972Z,83.95
2022-10-10T21:29:27.450Z,83.87
2022-10-10T21:31:53.886Z,83.40
2022-10-10T21:34:20.337Z,83.38
2022-10-10T21:36:47.026Z,84.38
2022-10-10T21:39:14.519Z,85.83
2022-10-10T21:41:41.312Z,85.92
2022-10-10T21:44:08.255Z,85.76
2022-10-10T21:46:37.049Z,84.96
2022-10-10T21:49:11.239Z,85.91
2022-10-10T21:51:45.528Z,86.61
2022-10-10T21:54:12.644Z,87.03
2022-10-10T21:56:39.690Z,87.37
2022-10-10T21:59:06.969Z,88.96
2022-10-10T22:01:34.016Z,89.59
2022-10-10T22:04:01.959Z,89.41
2022-10-10T22:06:28.660Z,89.53
2022-10-10T22:08:58.270Z,89.07
2022-10-10T22:11:26.232Z,89.19
2022-10-10T22:13:53.079Z,88.67
2022-10-10T22:16:20.366Z,89.27
2022-10-10T22:18:47.075Z,89.78
2022-10-10T22:21:15.975Z,90.90
2022-10-10T22:23:43.678Z,91.82
2022-10-10T22:26:12.154Z,91.08
2022-10-10T22:28:39.085Z,91.91
2022-10-10T22:31:08.047Z,91.79
2022-10-10T22:33:34.645Z,91.19
2022-10-10T22:36:01.288Z,89.98
2022-10-10T22:38:27.889Z,88.09
2022-10-10T22:40:54.322Z,86.72
2022-10-10T22:43:24.857Z,86.11
2022-10-10T22:45:53.191Z,85.82
2022-10-10T22:48:19.606Z,87.57
2022-10-10T22:50:46.104Z,90.08
2022-10-10T22:53:12.676Z,89.32
2022-10-10T22:55:39.123Z,87.57
2022-10-10T22:58:05.576Z,87.79
2022-10-10T23:00:32.069Z,87.45
2022-10-10T23:02:59.125Z,87.94
2022-10-10T23:05:26.375Z,90.15
2022-10-10T23:07:52.830Z,90.08
2022-10-10T23:10:19.435Z,89.76
2022-10-10T23:12:45.981Z,87.57
2022-10-10T23:15:12.432Z,87.52
2022-10-10T23:17:38.962Z,87.82
2022-10-10T23:20:06.154Z,88.13
2022-10-10T23:22:32.627Z,85.95
2022-10-10T23:24:59.058Z,86.90
2022-10-10T23:27:25.556Z,86.28
2022-10-10T23:29:51.994Z,86.00
2022-10-10T23:32:18.433Z,86.04
2022-10-10T23:34:44.840Z,86.68
2022-10-10T23:37:11.448Z,87.17
2022-10-10T23:39:41.630Z,87.98
2022-10-10T23:42:08.062Z,89.04
2022-10-10T23:44:34.575Z,87.67
2022-10-10T23:47:01.051Z,87.61
2022-10-10T23:49:27.489Z,88.23
2022-10-10T23:51:53.934Z,88.20
2022-10-10T23:54:20.761Z,89.64
2022-10-10T23:56:47.193Z,89.71
2022-10-10T23:59:13.664Z,89.67
